Time;durP1;ratioP1;P1;durP2;ratioP2;P2;SDS_P1;SDS_P2;PMS_P1;PMS_P2;Temp;Humidity;BMP_temperature;BMP_pressure;BME280_temperature;BME280_humidity;BME280_pressure;Samples;Min_cycle;Max_cycle;Signal;HPM_P1;HPM_P2
2022/01/07 00:01:18;;;;;;;;;;;-2.50;99.90;;;;;;4994242;28;20293;-81
2022/01/07 00:03:44;;;;;;;;;;;-2.50;99.90;;;;;;4978041;28;19918;-81
2022/01/07 00:06:09;;;;;;;;;;;-2.50;99.90;;;;;;4978331;28;20016;-82
2022/01/07 00:08:35;;;;;;;;;;;-2.50;99.90;;;;;;5013090;28;19917;-81
2022/01/07 00:11:00;;;;;;;;;;;-2.40;99.90;;;;;;4981335;28;19917;-81
2022/01/07 00:13:26;;;;;;;;;;;-2.40;99.90;;;;;;4978140;28;19924;-81
2022/01/07 00:15:53;;;;;;;;;;;-2.50;99.90;;;;;;5013002;28;19939;-81
2022/01/07 00:18:20;;;;;;;;;;;-2.60;99.90;;;;;;5013055;28;19913;-81
2022/01/07 00:20:46;;;;;;;;;;;-2.60;99.90;;;;;;4993656;28;19917;-81
2022/01/07 00:23:11;;;;;;;;;;;-2.70;99.90;;;;;;5026286;28;20268;-81
2022/01/07 00:25:37;;;;;;;;;;;-2.70;99.90;;;;;;4996562;28;19968;-81
2022/01/07 00:28:03;;;;;;;;;;;-2.70;99.90;;;;;;4997156;28;20088;-81
2022/01/07 00:30:28;;;;;;;;;;;-2.60;99.90;;;;;;5012899;28;20024;-81
2022/01/07 00:32:54;;;;;;;;;;;-2.60;99.90;;;;;;4993871;28;19917;-81
2022/01/07 00:35:20;;;;;;;;;;;-2.70;99.90;;;;;;4980141;28;20010;-82
2022/01/07 00:37:47;;;;;;;;;;;-2.70;99.90;;;;;;4993907;28;19917;-80
2022/01/07 00:40:14;;;;;;;;;;;-2.70;99.90;;;;;;5012732;28;19913;-81
2022/01/07 00:42:39;;;;;;;;;;;-2.60;99.90;;;;;;4993480;28;19980;-81
2022/01/07 00:45:05;;;;;;;;;;;-2.50;99.90;;;;;;4993365;28;19954;-81
2022/01/07 00:47:31;;;;;;;;;;;-2.50;99.90;;;;;;4976984;28;20043;-80
2022/01/07 00:49:58;;;;;;;;;;;-2.60;99.90;;;;;;5003396;28;19928;-81
2022/01/07 00:52:23;;;;;;;;;;;-2.50;99.90;;;;;;4991373;28;19916;-81
2022/01/07 00:54:49;;;;;;;;;;;-2.50;99.90;;;;;;5032295;28;20276;-81
2022/01/07 00:57:15;;;;;;;;;;;-2.60;99.90;;;;;;4999607;28;19975;-80
2022/01/07 00:59:42;;;;;;;;;;;-2.60;99.90;;;;;;4999566;28;19979;-81
2022/01/07 01:02:07;;;;;;;;;;;-2.60;99.90;;;;;;5000784;28;19967;-81
2022/01/07 01:04:33;;;;;;;;;;;-2.40;99.90;;;;;;4997366;28;19964;-81
2022/01/07 01:06:58;;;;;;;;;;;-2.40;99.90;;;;;;4996494;28;19923;-81
2022/01/07 01:09:24;;;;;;;;;;;-2.30;99.90;;;;;;5012631;28;19967;-80
2022/01/07 01:11:50;;;;;;;;;;;-2.30;99.90;;;;;;4997058;28;19921;-80
2022/01/07 01:14:15;;;;;;;;;;;-2.40;99.90;;;;;;4983591;28;19922;-81
2022/01/07 01:16:41;;;;;;;;;;;-2.40;99.90;;;;;;5015501;28;20384;-81
2022/01/07 01:19:07;;;;;;;;;;;-2.50;99.90;;;;;;4999113;28;19925;-80
2022/01/07 01:21:33;;;;;;;;;;;-2.40;99.90;;;;;;4996811;28;19961;-80
2022/01/07 01:23:59;;;;;;;;;;;-2.40;99.90;;;;;;4996675;28;19952;-81
2022/01/07 01:26:25;;;;;;;;;;;-2.50;99.90;;;;;;5015261;28;19979;-81
2022/01/07 01:28:50;;;;;;;;;;;-2.40;99.90;;;;;;5013519;28;19920;-81
2022/01/07 01:31:17;;;;;;;;;;;-2.40;99.90;;;;;;5003390;28;19968;-80
2022/01/07 01:33:44;;;;;;;;;;;-2.40;99.90;;;;;;4998027;28;19921;-80
2022/01/07 01:36:10;;;;;;;;;;;-2.40;99.90;;;;;;5015624;28;19913;-80
2022/01/07 01:38:36;;;;;;;;;;;-2.40;99.90;;;;;;4995775;28;20300;-81
2022/01/07 01:41:02;;;;;;;;;;;-2.40;99.90;;;;;;5001658;28;20003;-80
2022/01/07 01:43:28;;;;;;;;;;;-2.50;99.90;;;;;;4996305;28;20348;-80
2022/01/07 01:45:53;;;;;;;;;;;-2.50;99.90;;;;;;4998905;28;19923;-81
2022/01/07 01:48:20;;;;;;;;;;;-2.60;99.90;;;;;;4995510;28;19953;-81
2022/01/07 01:50:50;;;;;;;;;;;-2.60;99.90;;;;;;4996005;28;20012;-80
2022/01/07 01:53:16;;;;;;;;;;;-2.70;99.90;;;;;;4998952;28;20399;-81
2022/01/07 01:55:42;;;;;;;;;;;-2.80;99.90;;;;;;5015081;28;19913;-79
2022/01/07 01:58:07;;;;;;;;;;;-2.70;99.90;;;;;;5011185;28;20004;-80
2022/01/07 02:00:34;;;;;;;;;;;-2.80;99.90;;;;;;4993099;28;19909;-80
2022/01/07 02:03:00;;;;;;;;;;;-2.80;99.90;;;;;;4998645;28;19964;-81
2022/01/07 02:05:26;;;;;;;;;;;-2.90;99.90;;;;;;5024762;28;19925;-80
2022/01/07 02:07:52;;;;;;;;;;;-2.90;99.90;;;;;;5015496;28;19967;-80
2022/01/07 02:10:18;;;;;;;;;;;-3.00;99.90;;;;;;4998493;28;19913;-80
2022/01/07 02:12:44;;;;;;;;;;;-3.00;99.90;;;;;;5015293;28;19913;-80
2022/01/07 02:15:11;;;;;;;;;;;-3.00;99.90;;;;;;5010355;28;20383;-80
2022/01/07 02:17:39;;;;;;;;;;;-3.00;99.90;;;;;;4995184;28;19949;-80
2022/01/07 02:20:05;;;;;;;;;;;-3.00;99.90;;;;;;5016362;28;20334;-81
2022/01/07 02:22:31;;;;;;;;;;;-2.90;99.90;;;;;;5015253;28;19918;-80
2022/01/07 02:24:56;;;;;;;;;;;-2.90;99.90;;;;;;5015072;28;19921;-80
2022/01/07 02:27:22;;;;;;;;;;;-2.90;99.90;;;;;;4998342;28;20530;-80
2022/01/07 02:29:48;;;;;;;;;;;-2.90;99.90;;;;;;5014456;28;19921;-80
2022/01/07 02:32:15;;;;;;;;;;;-2.90;99.90;;;;;;4998762;28;19920;-80
2022/01/07 02:34:40;;;;;;;;;;;-2.90;99.90;;;;;;4998998;28;20315;-80
2022/01/07 02:37:06;;;;;;;;;;;-2.90;99.90;;;;;;4998074;28;19913;-80
2022/01/07 02:39:31;;;;;;;;;;;-2.90;99.90;;;;;;4997969;28;19920;-80
2022/01/07 02:41:57;;;;;;;;;;;-2.80;99.90;;;;;;4998632;28;20354;-80
2022/01/07 02:44:23;;;;;;;;;;;-2.90;99.90;;;;;;4998484;28;19924;-80
2022/01/07 02:46:49;;;;;;;;;;;-2.90;99.90;;;;;;4997819;28;19953;-80
2022/01/07 02:49:15;;;;;;;;;;;-2.90;99.90;;;;;;4981494;28;20015;-80
2022/01/07 02:51:41;;;;;;;;;;;-3.00;99.90;;;;;;5011365;28;19933;-80
2022/01/07 02:54:08;;;;;;;;;;;-3.00;99.90;;;;;;5011496;28;19914;-80
2022/01/07 02:56:34;;;;;;;;;;;-3.00;99.90;;;;;;5010744;28;20003;-80
2022/01/07 02:59:00;;;;;;;;;;;-3.00;99.90;;;;;;4994180;28;20003;-80
2022/01/07 03:01:26;;;;;;;;;;;-3.00;99.90;;;;;;4994983;28;20411;-80
2022/01/07 03:03:51;;;;;;;;;;;-3.00;99.90;;;;;;5011266;28;19972;-80
2022/01/07 03:06:17;;;;;;;;;;;-3.00;99.90;;;;;;5017719;28;19921;-80
2022/01/07 03:08:46;;;;;;;;;;;-3.00;99.90;;;;;;4994286;28;19917;-80
2022/01/07 03:11:12;;;;;;;;;;;-3.00;99.90;;;;;;4994402;28;20356;-80
2022/01/07 03:13:38;;;;;;;;;;;-3.00;99.90;;;;;;4994280;28;19914;-80
2022/01/07 03:16:03;;;;;;;;;;;-3.00;99.90;;;;;;4977783;28;19921;-80
2022/01/07 03:18:29;;;;;;;;;;;-3.00;99.90;;;;;;5010211;28;20372;-80
2022/01/07 03:20:54;;;;;;;;;;;-3.00;99.90;;;;;;5010927;28;20524;-80
2022/01/07 03:23:20;;;;;;;;;;;-2.90;99.90;;;;;;4997884;28;19943;-79
2022/01/07 03:25:46;;;;;;;;;;;-2.90;99.90;;;;;;5029859;28;19921;-80
2022/01/07 03:28:12;;;;;;;;;;;-2.90;99.90;;;;;;4994480;28;19917;-80
2022/01/07 03:30:38;;;;;;;;;;;-2.90;99.90;;;;;;4984608;28;19913;-80
2022/01/07 03:33:04;;;;;;;;;;;-2.90;99.90;;;;;;5031612;28;19917;-80
2022/01/07 03:35:30;;;;;;;;;;;-2.90;99.90;;;;;;4996913;28;19917;-80
2022/01/07 03:37:55;;;;;;;;;;;-2.90;99.90;;;;;;5013890;28;19975;-80
2022/01/07 03:40:21;;;;;;;;;;;-2.90;99.90;;;;;;5013141;28;19913;-80
2022/01/07 03:42:48;;;;;;;;;;;-2.90;99.90;;;;;;5013936;28;20349;-80
2022/01/07 03:45:13;;;;;;;;;;;-2.90;99.90;;;;;;4997212;28;19956;-80
2022/01/07 03:47:40;;;;;;;;;;;-2.90;99.90;;;;;;5009959;28;19960;-80
2022/01/07 03:50:06;;;;;;;;;;;-2.80;99.90;;;;;;5020313;28;19917;-80
2022/01/07 03:52:32;;;;;;;;;;;-2.70;99.90;;;;;;5010455;28;19917;-80
2022/01/07 03:54:58;;;;;;;;;;;-2.70;99.90;;;;;;5013825;28;19917;-79
2022/01/07 03:57:23;;;;;;;;;;;-2.60;99.90;;;;;;4980794;28;19924;-80
2022/01/07 03:59:50;;;;;;;;;;;-2.70;99.90;;;;;;4980984;28;19936;-80
2022/01/07 04:02:19;;;;;;;;;;;-2.70;99.90;;;;;;4994210;28;19918;-80
2022/01/07 04:04:45;;;;;;;;;;;-2.70;99.90;;;;;;5011564;28;19972;-80
2022/01/07 04:07:11;;;;;;;;;;;-2.80;99.90;;;;;;5024059;28;19917;-80
2022/01/07 04:09:36;;;;;;;;;;;-2.80;99.90;;;;;;4996582;28;19913;-80
2022/01/07 04:12:03;;;;;;;;;;;-2.80;99.90;;;;;;5030036;28;20295;-80
2022/01/07 04:14:29;;;;;;;;;;;-2.80;99.90;;;;;;5013132;28;19921;-80
2022/01/07 04:16:55;;;;;;;;;;;-2.80;99.90;;;;;;5010892;28;19913;-81
2022/01/07 04:19:21;;;;;;;;;;;-2.70;99.90;;;;;;5011654;28;19914;-80
2022/01/07 04:21:49;;;;;;;;;;;-2.70;99.90;;;;;;5029914;28;19909;-80
2022/01/07 04:24:14;;;;;;;;;;;-2.80;99.90;;;;;;4995310;28;19918;-80
2022/01/07 04:26:40;;;;;;;;;;;-2.80;99.90;;;;;;5012130;28;19933;-80
2022/01/07 04:29:06;;;;;;;;;;;-2.80;99.90;;;;;;5013432;28;20277;-80
2022/01/07 04:31:31;;;;;;;;;;;-2.80;99.90;;;;;;5014092;28;19936;-80
2022/01/07 04:33:57;;;;;;;;;;;-2.80;99.90;;;;;;5007762;28;19924;-80
2022/01/07 04:36:22;;;;;;;;;;;-2.80;99.90;;;;;;4980903;28;20383;-79
2022/01/07 04:38:48;;;;;;;;;;;-2.80;99.90;;;;;;4980732;28;19921;-80
2022/01/07 04:41:13;;;;;;;;;;;-2.70;99.90;;;;;;5026962;28;20397;-80
2022/01/07 04:43:39;;;;;;;;;;;-2.80;99.90;;;;;;5027345;28;19987;-80
2022/01/07 04:46:05;;;;;;;;;;;-2.70;99.90;;;;;;5012798;28;20309;-80
2022/01/07 04:48:31;;;;;;;;;;;-2.80;99.90;;;;;;5008939;28;19995;-80
2022/01/07 04:50:57;;;;;;;;;;;-2.80;99.90;;;;;;5016081;28;19920;-80
2022/01/07 04:53:22;;;;;;;;;;;-2.80;99.90;;;;;;5017038;28;19913;-80
2022/01/07 04:55:48;;;;;;;;;;;-2.80;99.90;;;;;;4997906;28;20295;-80
2022/01/07 04:58:14;;;;;;;;;;;-2.80;99.90;;;;;;4998358;28;19937;-80
2022/01/07 05:00:41;;;;;;;;;;;-2.80;99.90;;;;;;4980658;28;19918;-80
2022/01/07 05:03:07;;;;;;;;;;;-2.80;99.90;;;;;;4997224;28;19917;-80
2022/01/07 05:05:32;;;;;;;;;;;-2.80;99.90;;;;;;4996556;28;19924;-80
2022/01/07 05:07:58;;;;;;;;;;;-2.90;99.90;;;;;;5016791;28;19917;-80
2022/01/07 05:10:24;;;;;;;;;;;-2.90;99.90;;;;;;5015646;28;19917;-80
2022/01/07 05:12:50;;;;;;;;;;;-2.90;99.90;;;;;;5035537;28;20607;-80
2022/01/07 05:15:16;;;;;;;;;;;-2.90;99.90;;;;;;5016138;28;19924;-80
2022/01/07 05:17:42;;;;;;;;;;;-2.90;99.90;;;;;;5016088;28;19923;-80
2022/01/07 05:20:08;;;;;;;;;;;-2.90;99.90;;;;;;5015709;28;20473;-80
2022/01/07 05:22:34;;;;;;;;;;;-2.90;99.90;;;;;;5034305;28;19958;-80
2022/01/07 05:25:00;;;;;;;;;;;-2.90;99.90;;;;;;4999873;28;19925;-80
2022/01/07 05:27:25;;;;;;;;;;;-3.00;99.90;;;;;;4999439;28;19917;-80
2022/01/07 05:29:51;;;;;;;;;;;-2.80;99.90;;;;;;4999434;28;19917;-80
2022/01/07 05:32:16;;;;;;;;;;;-2.70;99.90;;;;;;5013115;28;19917;-80
2022/01/07 05:34:42;;;;;;;;;;;-2.60;99.90;;;;;;5012939;28;19917;-80
2022/01/07 05:37:10;;;;;;;;;;;-2.60;99.90;;;;;;5015150;28;19918;-80
2022/01/07 05:39:36;;;;;;;;;;;-2.60;99.90;;;;;;5024640;28;20020;-80
2022/01/07 05:42:01;;;;;;;;;;;-2.60;99.90;;;;;;5027982;28;19960;-80
2022/01/07 05:44:27;;;;;;;;;;;-2.60;99.90;;;;;;5016512;28;19917;-80
2022/01/07 05:46:53;;;;;;;;;;;-2.50;99.90;;;;;;5016178;28;19917;-80
2022/01/07 05:49:18;;;;;;;;;;;-2.40;99.90;;;;;;4984802;28;19921;-80
2022/01/07 05:51:44;;;;;;;;;;;-2.30;99.90;;;;;;5016250;28;19960;-80
2022/01/07 05:54:09;;;;;;;;;;;-2.30;99.90;;;;;;5016277;28;19971;-80
2022/01/07 05:56:35;;;;;;;;;;;-2.20;99.90;;;;;;5016300;28;20015;-80
2022/01/07 05:59:01;;;;;;;;;;;-2.20;99.90;;;;;;4999399;28;20307;-80
2022/01/07 06:01:27;;;;;;;;;;;-2.20;99.90;;;;;;5012483;28;19913;-80
2022/01/07 06:03:52;;;;;;;;;;;-2.20;99.90;;;;;;5001394;28;20384;-80
2022/01/07 06:06:19;;;;;;;;;;;-2.20;99.90;;;;;;5029140;28;19967;-80
2022/01/07 06:08:44;;;;;;;;;;;-2.20;99.90;;;;;;5015114;28;20031;-79
2022/01/07 06:11:10;;;;;;;;;;;-2.30;99.90;;;;;;5015438;28;20024;-80
2022/01/07 06:13:36;;;;;;;;;;;-2.40;99.90;;;;;;5031538;28;20272;-80
2022/01/07 06:16:02;;;;;;;;;;;-2.40;99.90;;;;;;5014895;28;19928;-80
2022/01/07 06:18:28;;;;;;;;;;;-2.50;99.90;;;;;;5031295;28;19913;-80
2022/01/07 06:20:53;;;;;;;;;;;-2.60;99.90;;;;;;5015320;28;19963;-80
2022/01/07 06:23:20;;;;;;;;;;;-2.60;99.90;;;;;;5014919;28;20003;-79
2022/01/07 06:25:48;;;;;;;;;;;-2.60;99.90;;;;;;5014745;28;20023;-80
2022/01/07 06:28:15;;;;;;;;;;;-2.50;99.90;;;;;;5000139;28;19963;-80
2022/01/07 06:30:40;;;;;;;;;;;-2.50;99.90;;;;;;5015880;28;19913;-80
2022/01/07 06:33:06;;;;;;;;;;;-2.50;99.90;;;;;;4999241;28;20363;-80
2022/01/07 06:35:31;;;;;;;;;;;-2.40;99.90;;;;;;5014468;28;19917;-80
2022/01/07 06:37:57;;;;;;;;;;;-2.40;99.90;;;;;;4998903;28;20423;-80
2022/01/07 06:40:23;;;;;;;;;;;-2.40;99.90;;;;;;5010976;28;20060;-80
2022/01/07 06:42:48;;;;;;;;;;;-2.40;99.90;;;;;;5011789;28;19917;-80
2022/01/07 06:45:14;;;;;;;;;;;-2.30;99.90;;;;;;5010940;28;19957;-80
2022/01/07 06:47:39;;;;;;;;;;;-2.30;99.90;;;;;;5009873;28;20011;-80
2022/01/07 06:50:05;;;;;;;;;;;-2.30;99.90;;;;;;5010050;28;19921;-80
2022/01/07 06:52:31;;;;;;;;;;;-2.20;99.90;;;;;;5011663;28;19928;-80
2022/01/07 06:54:57;;;;;;;;;;;-2.30;99.90;;;;;;4989335;28;19918;-80
2022/01/07 06:57:22;;;;;;;;;;;-2.20;99.90;;;;;;5007467;28;20011;-80
2022/01/07 06:59:50;;;;;;;;;;;-2.30;99.90;;;;;;5023755;28;20406;-80
2022/01/07 07:02:16;;;;;;;;;;;-2.30;99.90;;;;;;5014261;28;19913;-80
2022/01/07 07:04:44;;;;;;;;;;;-2.30;99.90;;;;;;5010899;28;19917;-80
2022/01/07 07:07:10;;;;;;;;;;;-2.40;99.90;;;;;;4994208;28;19917;-80
2022/01/07 07:09:35;;;;;;;;;;;-2.40;99.90;;;;;;4996177;28;19954;-80
2022/01/07 07:12:01;;;;;;;;;;;-2.40;99.90;;;;;;5014426;28;19917;-80
2022/01/07 07:14:27;;;;;;;;;;;-2.30;99.90;;;;;;5031189;28;19913;-80
2022/01/07 07:16:52;;;;;;;;;;;-2.30;99.90;;;;;;5013982;28;19913;-80
2022/01/07 07:19:18;;;;;;;;;;;-2.30;99.90;;;;;;4997127;28;19964;-80
2022/01/07 07:21:44;;;;;;;;;;;-2.20;99.90;;;;;;5014333;28;19917;-80
2022/01/07 07:24:09;;;;;;;;;;;-2.20;99.90;;;;;;5013860;28;19917;-80
2022/01/07 07:26:35;;;;;;;;;;;-2.20;99.90;;;;;;4973479;28;20522;-80
2022/01/07 07:29:00;;;;;;;;;;;-2.10;99.90;;;;;;4998151;28;19924;-79
2022/01/07 07:31:26;;;;;;;;;;;-2.00;99.90;;;;;;5013994;28;19925;-79
2022/01/07 07:36:30;;;;;;;;;;;-1.90;99.90;;;;;;5013517;28;19925;-79
2022/01/07 07:38:57;;;;;;;;;;;-1.90;99.90;;;;;;4997048;28;19917;-79
2022/01/07 07:41:22;;;;;;;;;;;-1.90;99.90;;;;;;5030380;28;19913;-79
2022/01/07 07:43:49;;;;;;;;;;;-1.90;99.90;;;;;;4996968;28;20054;-79
2022/01/07 07:46:16;;;;;;;;;;;-1.90;99.90;;;;;;4997290;28;19921;-79
2022/01/07 07:48:42;;;;;;;;;;;-1.80;99.90;;;;;;5009808;28;19914;-79
2022/01/07 07:51:07;;;;;;;;;;;-1.80;99.90;;;;;;5010770;28;20288;-79
2022/01/07 07:53:33;;;;;;;;;;;-1.80;99.90;;;;;;5030889;28;19913;-79
2022/01/07 07:55:58;;;;;;;;;;;-1.70;99.90;;;;;;5012775;28;20318;-79
2022/01/07 07:58:24;;;;;;;;;;;-1.70;99.90;;;;;;5013128;28;19917;-80
2022/01/07 08:00:50;;;;;;;;;;;-1.70;99.90;;;;;;5013181;28;20379;-80
2022/01/07 08:03:16;;;;;;;;;;;-1.60;99.90;;;;;;5028986;28;20350;-79
2022/01/07 08:05:42;;;;;;;;;;;-1.60;99.90;;;;;;5012832;28;20291;-80
2022/01/07 08:08:07;;;;;;;;;;;-1.50;99.90;;;;;;5030979;28;19913;-80
2022/01/07 08:10:33;;;;;;;;;;;-1.50;99.90;;;;;;5012553;28;20379;-79
2022/01/07 08:18:15;;;;;;;;;;;-1.40;99.90;;;;;;5029013;28;19913;-80
2022/01/07 08:20:40;;;;;;;;;;;-1.40;99.90;;;;;;5030651;28;19913;-80
2022/01/07 08:23:06;;;;;;;;;;;-1.20;99.90;;;;;;4996912;28;20352;-80
2022/01/07 08:25:32;;;;;;;;;;;-1.20;99.90;;;;;;4996042;28;19921;-80
2022/01/07 08:28:02;;;;;;;;;;;-1.20;99.90;;;;;;5011705;28;20015;-80
2022/01/07 08:30:35;;;;;;;;;;;-1.10;99.90;;;;;;5010209;28;19917;-80
2022/01/07 08:35:45;;;;;;;;;;;-1.00;99.90;;;;;;4997342;28;19913;-80
2022/01/07 08:38:11;;;;;;;;;;;-1.00;99.90;;;;;;4977882;28;19917;-80
2022/01/07 08:40:37;;;;;;;;;;;-0.90;99.90;;;;;;5000978;28;19940;-80
2022/01/07 08:43:02;;;;;;;;;;;-0.90;99.90;;;;;;5019918;28;20393;-80
2022/01/07 08:45:28;;;;;;;;;;;-0.90;99.90;;;;;;5009063;28;19928;-80
2022/01/07 08:47:54;;;;;;;;;;;-0.80;99.90;;;;;;5030783;28;20380;-80
2022/01/07 08:50:19;;;;;;;;;;;-0.80;99.90;;;;;;5012487;28;20384;-80
2022/01/07 08:52:45;;;;;;;;;;;-0.80;99.90;;;;;;5015991;28;20018;-80
2022/01/07 08:55:11;;;;;;;;;;;-0.90;99.90;;;;;;5009619;28;19922;-80
2022/01/07 08:57:36;;;;;;;;;;;-0.80;99.90;;;;;;5003388;28;19914;-80
2022/01/07 09:00:03;;;;;;;;;;;-0.80;99.90;;;;;;4996437;28;19924;-80
2022/01/07 09:02:28;;;;;;;;;;;-0.80;99.90;;;;;;5007327;28;19924;-79
2022/01/07 09:04:55;;;;;;;;;;;-0.70;99.90;;;;;;5013201;28;20291;-80
2022/01/07 09:07:21;;;;;;;;;;;-0.70;99.90;;;;;;4996460;28;20288;-79
2022/01/07 09:09:47;;;;;;;;;;;-0.70;99.90;;;;;;5011517;28;19916;-80
2022/01/07 09:12:12;;;;;;;;;;;-0.60;99.90;;;;;;4995379;28;19951;-80
2022/01/07 09:14:38;;;;;;;;;;;-0.60;99.90;;;;;;5016143;28;19913;-80
2022/01/07 09:17:04;;;;;;;;;;;-0.60;99.90;;;;;;5006599;28;20376;-80
2022/01/07 09:19:29;;;;;;;;;;;-0.60;99.90;;;;;;5015621;28;20328;-80
2022/01/07 09:21:56;;;;;;;;;;;-0.60;99.90;;;;;;4999717;28;19928;-80
2022/01/07 09:24:22;;;;;;;;;;;-0.60;99.90;;;;;;5016257;28;19985;-80
2022/01/07 09:26:48;;;;;;;;;;;-0.60;99.90;;;;;;5021244;28;19930;-80
2022/01/07 09:29:13;;;;;;;;;;;-0.60;99.90;;;;;;5003581;28;19940;-79
2022/01/07 09:31:39;;;;;;;;;;;-0.60;99.90;;;;;;5016396;28;20306;-79
2022/01/07 09:34:06;;;;;;;;;;;-0.60;99.90;;;;;;5000359;28;19924;-78
2022/01/07 09:36:32;;;;;;;;;;;-0.60;99.90;;;;;;5033439;28;19913;-79
2022/01/07 09:38:58;;;;;;;;;;;-0.50;99.90;;;;;;5033489;28;20016;-79
2022/01/07 09:41:24;;;;;;;;;;;-0.50;99.90;;;;;;5016110;28;20427;-79
2022/01/07 09:43:49;;;;;;;;;;;-0.40;99.90;;;;;;5006433;28;19924;-79
2022/01/07 09:46:15;;;;;;;;;;;-0.40;99.90;;;;;;5022116;28;19921;-79
2022/01/07 09:48:42;;;;;;;;;;;-0.40;99.90;;;;;;5015313;28;20380;-79
2022/01/07 09:51:08;;;;;;;;;;;-0.30;99.90;;;;;;5033415;28;19913;-79
2022/01/07 09:53:33;;;;;;;;;;;-0.30;99.90;;;;;;5030850;28;19917;-79
2022/01/07 09:56:00;;;;;;;;;;;-0.30;99.90;;;;;;5014305;28;20545;-80
2022/01/07 09:58:26;;;;;;;;;;;-0.30;99.90;;;;;;5008446;28;20296;-80
2022/01/07 10:00:59;;;;;;;;;;;-0.20;99.90;;;;;;4996894;28;19917;-79
2022/01/07 10:03:25;;;;;;;;;;;-0.20;99.90;;;;;;4985927;28;19913;-80
2022/01/07 10:05:50;;;;;;;;;;;-0.20;99.90;;;;;;4978387;28;19978;-80
2022/01/07 10:08:21;;;;;;;;;;;-0.20;99.90;;;;;;5005382;28;19921;-80
2022/01/07 10:10:47;;;;;;;;;;;-0.20;99.90;;;;;;5017281;28;20011;-80
2022/01/07 10:13:18;;;;;;;;;;;-0.20;99.90;;;;;;5012183;28;19917;-79
2022/01/07 10:15:43;;;;;;;;;;;-0.10;99.90;;;;;;4978486;28;19914;-80
2022/01/07 10:18:10;;;;;;;;;;;-0.20;99.90;;;;;;4994518;28;19918;-80
2022/01/07 10:20:37;;;;;;;;;;;-0.20;99.90;;;;;;5007781;28;19961;-80
2022/01/07 10:23:07;;;;;;;;;;;-0.10;99.90;;;;;;4975815;28;19918;-80
2022/01/07 10:25:34;;;;;;;;;;;-0.10;99.90;;;;;;5011194;28;19967;-80
2022/01/07 10:28:02;;;;;;;;;;;-0.10;99.90;;;;;;4998239;28;19987;-80
2022/01/07 10:30:32;;;;;;;;;;;-0.10;99.90;;;;;;5003314;28;20473;-80
2022/01/07 10:32:59;;;;;;;;;;;0.00;99.90;;;;;;5008240;28;19913;-80
2022/01/07 10:35:25;;;;;;;;;;;0.00;99.90;;;;;;4994767;28;19924;-80
2022/01/07 10:37:53;;;;;;;;;;;0.10;99.90;;;;;;5009824;28;19920;-80
2022/01/07 10:40:20;;;;;;;;;;;0.10;99.90;;;;;;4986655;28;19948;-80
2022/01/07 10:42:46;;;;;;;;;;;0.10;99.90;;;;;;5011612;28;20035;-80
2022/01/07 10:45:11;;;;;;;;;;;0.20;99.90;;;;;;5026792;28;20455;-81
2022/01/07 10:47:37;;;;;;;;;;;0.10;99.90;;;;;;4991880;28;20038;-79
2022/01/07 10:50:32;;;;;;;;;;;0.20;99.90;;;;;;5007593;28;19925;-80
2022/01/07 10:53:16;;;;;;;;;;;0.20;99.90;;;;;;4993556;28;19924;-80
2022/01/07 10:55:55;;;;;;;;;;;0.10;99.90;;;;;;4999638;28;19913;-79
2022/01/07 10:58:21;;;;;;;;;;;0.20;99.90;;;;;;4991674;28;19917;-79
2022/01/07 11:00:47;;;;;;;;;;;0.20;99.90;;;;;;5011167;28;20013;-80
2022/01/07 11:03:12;;;;;;;;;;;0.20;99.90;;;;;;4993887;28;20380;-79
2022/01/07 11:05:38;;;;;;;;;;;0.20;99.90;;;;;;4993851;28;19971;-79
2022/01/07 11:08:03;;;;;;;;;;;0.30;99.90;;;;;;5009570;28;19917;-79
2022/01/07 11:10:29;;;;;;;;;;;0.30;99.90;;;;;;5000714;28;20008;-79
2022/01/07 11:12:56;;;;;;;;;;;0.40;99.90;;;;;;4996278;28;19917;-78
2022/01/07 11:15:22;;;;;;;;;;;0.40;99.90;;;;;;5007398;28;19917;-78
2022/01/07 11:17:47;;;;;;;;;;;0.40;99.90;;;;;;5013739;28;19913;-79
2022/01/07 11:20:16;;;;;;;;;;;0.40;99.90;;;;;;5008431;28;19944;-79
2022/01/07 11:22:47;;;;;;;;;;;0.50;99.90;;;;;;5028733;28;20391;-79
2022/01/07 11:25:13;;;;;;;;;;;0.50;99.90;;;;;;5008072;28;19948;-80
2022/01/07 11:27:48;;;;;;;;;;;0.50;99.90;;;;;;4987745;28;19964;-80
2022/01/07 11:30:15;;;;;;;;;;;0.50;99.90;;;;;;4983059;28;19913;-79
2022/01/07 11:32:42;;;;;;;;;;;0.60;99.90;;;;;;5009731;28;20004;-79
2022/01/07 11:35:16;;;;;;;;;;;0.50;99.90;;;;;;4994156;28;19924;-79
2022/01/07 11:37:42;;;;;;;;;;;0.50;99.90;;;;;;5020932;28;19913;-80
2022/01/07 11:40:08;;;;;;;;;;;0.60;99.90;;;;;;5002163;28;20016;-80
2022/01/07 11:42:38;;;;;;;;;;;0.60;99.90;;;;;;5010799;28;19995;-80
2022/01/07 11:45:23;;;;;;;;;;;0.60;99.90;;;;;;5001768;28;19921;-79
2022/01/07 11:47:49;;;;;;;;;;;0.60;99.90;;;;;;5024872;28;19956;-79
2022/01/07 11:50:14;;;;;;;;;;;0.70;99.90;;;;;;5028817;28;19921;-80
2022/01/07 11:52:40;;;;;;;;;;;0.70;99.90;;;;;;5010931;28;19921;-79
2022/01/07 11:55:19;;;;;;;;;;;0.70;99.90;;;;;;5011510;28;19927;-80
2022/01/07 11:57:49;;;;;;;;;;;0.70;99.90;;;;;;5013191;28;19913;-80
2022/01/07 12:00:15;;;;;;;;;;;0.70;99.90;;;;;;5008342;28;19913;-80
2022/01/07 12:02:59;;;;;;;;;;;0.70;99.90;;;;;;5026304;28;20451;-80
2022/01/07 12:05:29;;;;;;;;;;;0.70;99.90;;;;;;4998885;28;20012;-79
2022/01/07 12:07:54;;;;;;;;;;;0.70;99.90;;;;;;5000939;28;19936;-81
2022/01/07 12:10:20;;;;;;;;;;;0.70;99.90;;;;;;4989477;28;20392;-80
2022/01/07 12:12:46;;;;;;;;;;;0.70;99.90;;;;;;5002475;28;19921;-81
2022/01/07 12:15:11;;;;;;;;;;;0.70;99.90;;;;;;5009970;28;19936;-80
2022/01/07 12:17:37;;;;;;;;;;;0.70;99.90;;;;;;4990211;28;19913;-80
2022/01/07 12:20:22;;;;;;;;;;;0.70;99.90;;;;;;5002816;28;19925;-80
2022/01/07 12:22:48;;;;;;;;;;;0.80;99.90;;;;;;4993333;28;19913;-80
2022/01/07 12:25:14;;;;;;;;;;;0.70;99.90;;;;;;5009479;28;20410;-79
2022/01/07 12:27:40;;;;;;;;;;;0.80;99.90;;;;;;4992692;28;20380;-79
2022/01/07 12:30:06;;;;;;;;;;;0.80;99.90;;;;;;5026496;28;19932;-80
2022/01/07 12:32:36;;;;;;;;;;;0.80;99.90;;;;;;5009763;28;19913;-80
2022/01/07 12:35:03;;;;;;;;;;;0.80;99.90;;;;;;5010319;28;20074;-79
2022/01/07 12:37:30;;;;;;;;;;;0.80;99.90;;;;;;5027816;28;19953;-79
2022/01/07 12:39:58;;;;;;;;;;;0.80;99.90;;;;;;5019590;28;20387;-80
2022/01/07 12:42:25;;;;;;;;;;;0.80;99.90;;;;;;5022058;28;19913;-82
2022/01/07 12:44:54;;;;;;;;;;;0.70;99.90;;;;;;5010594;28;19984;-80
2022/01/07 12:47:27;;;;;;;;;;;0.80;99.90;;;;;;5027259;28;20937;-80
2022/01/07 12:49:55;;;;;;;;;;;0.70;99.90;;;;;;5027348;28;19917;-80
2022/01/07 12:52:25;;;;;;;;;;;0.70;99.90;;;;;;5010530;28;19917;-80
2022/01/07 12:54:56;;;;;;;;;;;0.80;99.90;;;;;;5010058;28;19963;-80
2022/01/07 12:57:23;;;;;;;;;;;0.80;99.90;;;;;;5012845;28;19916;-80
2022/01/07 13:00:00;;;;;;;;;;;0.80;99.90;;;;;;5012284;28;19967;-80
2022/01/07 13:02:28;;;;;;;;;;;0.80;99.90;;;;;;5013212;28;19939;-80
2022/01/07 13:05:08;;;;;;;;;;;0.70;99.90;;;;;;5010692;28;19917;-80
2022/01/07 13:07:38;;;;;;;;;;;0.70;99.90;;;;;;5011542;28;19913;-79
2022/01/07 13:10:04;;;;;;;;;;;0.70;99.90;;;;;;5010877;28;20455;-80
2022/01/07 13:12:29;;;;;;;;;;;0.70;99.90;;;;;;4996831;28;19943;-80
2022/01/07 13:14:55;;;;;;;;;;;0.70;99.90;;;;;;5030054;28;19921;-80
2022/01/07 13:17:25;;;;;;;;;;;0.70;99.90;;;;;;5013250;28;19917;-79
2022/01/07 13:19:52;;;;;;;;;;;0.70;99.90;;;;;;5011252;28;19924;-79
2022/01/07 13:22:19;;;;;;;;;;;0.70;99.90;;;;;;4983365;28;19956;-79
2022/01/07 13:24:46;;;;;;;;;;;0.60;99.90;;;;;;5002475;28;19952;-79
2022/01/07 13:27:14;;;;;;;;;;;0.60;99.90;;;;;;5006963;28;19918;-80
2022/01/07 13:29:45;;;;;;;;;;;0.60;99.90;;;;;;5005306;28;19917;-79
2022/01/07 13:32:11;;;;;;;;;;;0.60;99.90;;;;;;5009718;28;19913;-79
2022/01/07 13:34:38;;;;;;;;;;;0.60;99.90;;;;;;4994558;28;20368;-79
2022/01/07 13:37:05;;;;;;;;;;;0.60;99.90;;;;;;4991487;28;19913;-79
2022/01/07 13:39:39;;;;;;;;;;;0.60;99.90;;;;;;5009756;28;19928;-80
2022/01/07 13:42:05;;;;;;;;;;;0.60;99.90;;;;;;5004637;28;19964;-79
2022/01/07 13:44:32;;;;;;;;;;;0.60;99.90;;;;;;4992798;28;20347;-79
2022/01/07 13:47:01;;;;;;;;;;;0.60;99.90;;;;;;5011881;28;19992;-80
2022/01/07 13:49:29;;;;;;;;;;;0.60;99.90;;;;;;5011823;28;19913;-80
2022/01/07 13:51:58;;;;;;;;;;;0.60;99.90;;;;;;5012522;28;20048;-79
2022/01/07 13:54:32;;;;;;;;;;;0.60;99.90;;;;;;5011354;28;19913;-79
2022/01/07 13:56:59;;;;;;;;;;;0.60;99.90;;;;;;5011557;28;19966;-80
2022/01/07 13:59:25;;;;;;;;;;;0.60;99.90;;;;;;5008061;28;19917;-80
2022/01/07 14:02:00;;;;;;;;;;;0.60;99.90;;;;;;5010833;28;19913;-80
2022/01/07 14:04:58;;;;;;;;;;;0.60;99.90;;;;;;5008954;28;19943;-80
2022/01/07 14:07:27;;;;;;;;;;;0.60;99.90;;;;;;4976492;28;19918;-80
2022/01/07 14:09:59;;;;;;;;;;;0.60;99.90;;;;;;5013302;28;19913;-80
2022/01/07 14:12:25;;;;;;;;;;;0.60;99.90;;;;;;5011791;28;19917;-81
2022/01/07 14:15:01;;;;;;;;;;;0.60;99.90;;;;;;5011967;28;20545;-80
2022/01/07 14:17:27;;;;;;;;;;;0.60;99.90;;;;;;4976268;28;19936;-81
2022/01/07 14:19:56;;;;;;;;;;;0.60;99.90;;;;;;4985036;28;20576;-80
2022/01/07 14:22:22;;;;;;;;;;;0.60;99.90;;;;;;5010728;28;19920;-81
2022/01/07 14:24:48;;;;;;;;;;;0.60;99.90;;;;;;4995689;28;19913;-81
2022/01/07 14:27:34;;;;;;;;;;;0.60;99.90;;;;;;4994824;28;19913;-80
2022/01/07 14:30:00;;;;;;;;;;;0.60;99.90;;;;;;5008079;28;19914;-79